Time;durP1;ratioP1;P1;durP2;ratioP2;P2;SDS_P1;SDS_P2;PMS_P1;PMS_P2;Temp;Humidity;BMP_temperature;BMP_pressure;BME280_temperature;BME280_humidity;BME280_pressure;Samples;Min_cycle;Max_cycle;Signal;HPM_P1;HPM_P2
2022/10/13 00:01:46;;;;;;;10.43;8.10;;;14.90;45.00;;;;;;4978776;28;20242;-83
2022/10/13 00:04:11;;;;;;;11.57;7.40;;;14.90;44.40;;;;;;4979855;28;20218;-85
2022/10/13 00:06:37;;;;;;;13.00;7.60;;;14.90;45.10;;;;;;4979547;28;20248;-84
2022/10/13 00:09:03;;;;;;;10.47;7.37;;;14.80;46.20;;;;;;4979613;28;20172;-86
2022/10/13 00:11:29;;;;;;;9.57;7.70;;;14.80;47.10;;;;;;4979584;28;20689;-82
2022/10/13 00:13:57;;;;;;;10.73;7.53;;;14.80;47.60;;;;;;4980794;28;20178;-80
2022/10/13 00:16:24;;;;;;;10.40;7.77;;;14.80;49.30;;;;;;4989635;28;20164;-83
2022/10/13 00:18:50;;;;;;;10.47;7.37;;;14.70;50.90;;;;;;4993199;28;20175;-84
2022/10/13 00:21:25;;;;;;;12.17;8.03;;;14.80;50.10;;;;;;4996195;28;20171;-83
2022/10/13 00:23:52;;;;;;;11.37;8.83;;;14.80;49.30;;;;;;4992865;28;20234;-84
2022/10/13 00:26:20;;;;;;;12.37;7.97;;;14.80;49.80;;;;;;4992822;28;20303;-86
2022/10/13 00:28:45;;;;;;;10.67;7.47;;;14.80;49.70;;;;;;4981971;28;20176;-84
2022/10/13 00:31:27;;;;;;;9.27;7.37;;;14.80;49.40;;;;;;4980716;28;20306;-86
2022/10/13 00:33:53;;;;;;;11.30;7.63;;;14.80;49.70;;;;;;4979145;28;20179;-85
2022/10/13 00:36:21;;;;;;;13.63;8.43;;;14.80;49.20;;;;;;4977641;28;20651;-82
2022/10/13 00:38:47;;;;;;;13.20;8.50;;;14.80;51.30;;;;;;4977692;28;20183;-80
2022/10/13 00:41:13;;;;;;;12.63;8.67;;;14.80;52.70;;;;;;4976856;28;20584;-81
2022/10/13 00:43:48;;;;;;;15.97;8.93;;;14.70;51.80;;;;;;4977838;28;20217;-82
2022/10/13 00:46:14;;;;;;;13.30;8.53;;;14.70;53.10;;;;;;4976256;28;20310;-83
2022/10/13 00:48:42;;;;;;;15.50;9.27;;;14.70;53.10;;;;;;4977657;28;20164;-81
2022/10/13 00:51:10;;;;;;;14.27;9.20;;;14.90;52.40;;;;;;4977295;28;20184;-82
2022/10/13 00:53:38;;;;;;;13.83;9.00;;;14.80;52.10;;;;;;4977502;28;20207;-79
2022/10/13 00:56:08;;;;;;;13.67;8.33;;;14.90;51.30;;;;;;4983266;28;20171;-79
2022/10/13 00:58:35;;;;;;;16.57;8.77;;;14.90;46.80;;;;;;4979244;28;20666;-80
2022/10/13 01:01:04;;;;;;;12.73;7.93;;;14.90;47.10;;;;;;4978271;28;20719;-85
2022/10/13 01:03:30;;;;;;;12.13;9.07;;;14.90;47.20;;;;;;4977747;28;20207;-85
2022/10/13 01:05:59;;;;;;;15.57;8.53;;;14.90;47.10;;;;;;4976048;28;20183;-84
2022/10/13 01:08:26;;;;;;;14.73;8.17;;;14.80;49.10;;;;;;4976012;28;20176;-86
2022/10/13 01:11:02;;;;;;;12.97;9.07;;;14.70;51.10;;;;;;4977609;28;20168;-84
2022/10/13 01:13:57;;;;;;;11.93;8.33;;;14.70;50.70;;;;;;4977101;28;20540;-85
2022/10/13 01:16:32;;;;;;;12.70;8.00;;;14.70;52.90;;;;;;4975733;28;20270;-85
2022/10/13 01:19:35;;;;;;;13.00;8.60;;;14.70;54.30;;;;;;4976588;28;20159;-84
2022/10/13 01:22:10;;;;;;;16.80;9.77;;;14.80;52.30;;;;;;4976734;28;20277;-83
2022/10/13 01:25:02;;;;;;;15.73;9.93;;;15.00;47.10;;;;;;4976913;28;20510;-85
2022/10/13 01:27:40;;;;;;;14.57;9.30;;;15.00;42.60;;;;;;4976403;28;20213;-84
2022/10/13 01:30:13;;;;;;;12.60;9.00;;;14.70;49.20;;;;;;4976932;28;20270;-85
2022/10/13 01:32:53;;;;;;;12.93;9.20;;;14.50;55.80;;;;;;4976658;28;20171;-85
2022/10/13 01:35:24;;;;;;;16.13;9.83;;;14.40;59.30;;;;;;4976822;28;20240;-85
2022/10/13 01:38:38;;;;;;;14.57;9.93;;;14.40;62.80;;;;;;4976940;28;20180;-85
2022/10/13 01:41:12;;;;;;;13.40;10.60;;;14.30;65.20;;;;;;4975616;28;20537;-86
2022/10/13 01:44:36;;;;;;;17.90;14.17;;;14.40;66.00;;;;;;4976678;28;20678;-85
2022/10/13 01:47:02;;;;;;;24.77;19.87;;;14.40;66.40;;;;;;4921778;29;20184;-84
2022/10/13 01:49:35;;;;;;;32.67;26.23;;;14.40;64.50;;;;;;4969537;28;20184;-85
2022/10/13 01:52:07;;;;;;;31.97;26.57;;;14.40;63.90;;;;;;4980065;28;20626;-84
2022/10/13 01:54:33;;;;;;;35.20;27.90;;;14.60;59.10;;;;;;4978095;28;20167;-85
2022/10/13 01:56:59;;;;;;;32.63;27.90;;;14.40;60.20;;;;;;4978604;28;20205;-84
2022/10/13 01:59:28;;;;;;;36.30;27.77;;;14.40;60.60;;;;;;4978486;28;20653;-84
2022/10/13 02:02:23;;;;;;;31.47;24.80;;;14.50;59.90;;;;;;4979779;28;20201;-84
2022/10/13 02:05:06;;;;;;;30.10;23.67;;;14.50;61.00;;;;;;4981496;28;20720;-84
2022/10/13 02:08:05;;;;;;;31.20;24.37;;;14.40;64.40;;;;;;4981639;28;20174;-86
2022/10/13 02:10:39;;;;;;;31.60;23.50;;;14.40;66.00;;;;;;5001455;28;20190;-81
2022/10/13 02:13:07;;;;;;;30.80;22.20;;;14.50;62.30;;;;;;4977684;28;20179;-79
2022/10/13 02:16:02;;;;;;;27.50;19.83;;;14.40;63.60;;;;;;4975961;28;20224;-80
2022/10/13 02:18:33;;;;;;;25.93;19.60;;;14.40;62.90;;;;;;4973966;28;20687;-81
2022/10/13 02:21:00;;;;;;;24.63;17.33;;;14.50;63.00;;;;;;4974843;28;20215;-81
2022/10/13 02:23:26;;;;;;;22.57;15.33;;;14.50;62.90;;;;;;4975574;28;20211;-81
2022/10/13 02:25:54;;;;;;;19.47;14.27;;;14.40;63.10;;;;;;4974315;28;20318;-80
2022/10/13 02:28:20;;;;;;;20.13;13.70;;;14.40;63.40;;;;;;4974864;28;20191;-80
2022/10/13 02:30:45;;;;;;;18.97;13.30;;;14.40;65.50;;;;;;4976471;28;20536;-80
2022/10/13 02:33:13;;;;;;;17.87;12.97;;;14.40;67.30;;;;;;4976375;28;20190;-80
2022/10/13 02:35:39;;;;;;;16.17;12.60;;;14.20;69.40;;;;;;4994878;28;20175;-80
2022/10/13 02:38:05;;;;;;;19.60;11.93;;;14.30;67.70;;;;;;4996360;28;20197;-78
2022/10/13 02:40:33;;;;;;;17.97;12.00;;;14.30;68.50;;;;;;4989215;28;20192;-81
2022/10/13 02:43:01;;;;;;;16.63;12.77;;;14.20;68.80;;;;;;4976105;28;20216;-81
2022/10/13 02:45:30;;;;;;;18.27;12.17;;;14.20;70.30;;;;;;4975990;28;20254;-80
2022/10/13 02:48:10;;;;;;;17.07;12.00;;;14.20;72.40;;;;;;4975663;28;20619;-82
2022/10/13 02:50:38;;;;;;;17.33;11.70;;;14.10;73.10;;;;;;4974442;28;20275;-82
2022/10/13 02:53:03;;;;;;;17.27;11.77;;;14.10;74.50;;;;;;4975713;28;20184;-81
2022/10/13 02:55:29;;;;;;;18.20;11.67;;;14.10;75.30;;;;;;4975382;28;20174;-80
2022/10/13 02:57:56;;;;;;;17.27;11.70;;;14.10;75.00;;;;;;4975155;28;20560;-81
2022/10/13 03:00:22;;;;;;;21.13;12.73;;;14.10;74.60;;;;;;4974848;28;20168;-81
2022/10/13 03:02:48;;;;;;;19.80;12.33;;;14.10;75.00;;;;;;4987755;28;20256;-80
2022/10/13 03:05:14;;;;;;;18.93;13.17;;;14.10;76.10;;;;;;4995906;28;20224;-77
2022/10/13 03:07:41;;;;;;;15.03;12.50;;;14.10;74.90;;;;;;4995056;28;20708;-80
2022/10/13 03:10:08;;;;;;;19.47;12.53;;;14.10;76.70;;;;;;4982615;28;20171;-81
2022/10/13 03:12:41;;;;;;;20.50;12.57;;;14.10;76.80;;;;;;4977877;28;20209;-79
2022/10/13 03:15:08;;;;;;;17.77;12.50;;;14.00;77.50;;;;;;4974849;28;20310;-80
2022/10/13 03:17:33;;;;;;;19.47;12.50;;;14.10;76.20;;;;;;4974985;28;20195;-80
2022/10/13 03:19:59;;;;;;;20.10;11.97;;;14.20;73.20;;;;;;4974598;28;20277;-79
2022/10/13 03:22:24;;;;;;;18.73;12.43;;;14.30;69.40;;;;;;4974582;28;20702;-79
2022/10/13 03:24:50;;;;;;;19.63;12.60;;;14.30;70.60;;;;;;4974685;28;20629;-81
2022/10/13 03:27:16;;;;;;;22.03;12.50;;;14.20;72.90;;;;;;4973068;28;20602;-82
2022/10/13 03:29:42;;;;;;;19.53;12.30;;;14.20;74.10;;;;;;4974143;28;20256;-81
2022/10/13 03:32:07;;;;;;;17.27;12.07;;;14.20;73.30;;;;;;4975995;28;20184;-80
2022/10/13 03:34:33;;;;;;;16.77;12.07;;;14.30;73.20;;;;;;4981064;28;20183;-80
2022/10/13 03:36:58;;;;;;;15.33;11.33;;;14.20;72.70;;;;;;4979899;28;20178;-78
2022/10/13 03:39:24;;;;;;;17.03;11.70;;;14.20;74.40;;;;;;4979566;28;20633;-82
2022/10/13 03:41:50;;;;;;;18.73;11.03;;;14.20;71.90;;;;;;4980575;28;20207;-80
2022/10/13 03:44:15;;;;;;;17.57;12.33;;;14.10;72.60;;;;;;4980717;28;20175;-81
2022/10/13 03:46:41;;;;;;;17.80;11.20;;;14.20;73.70;;;;;;4979088;28;20196;-81
2022/10/13 03:49:09;;;;;;;17.67;11.97;;;14.10;73.20;;;;;;4980706;28;20190;-80
2022/10/13 03:51:35;;;;;;;17.17;11.67;;;14.20;73.70;;;;;;4980614;28;20177;-81
2022/10/13 03:54:01;;;;;;;17.47;12.90;;;14.30;68.60;;;;;;4980775;28;20250;-81
2022/10/13 03:56:28;;;;;;;21.00;12.73;;;14.50;62.80;;;;;;4980361;28;20189;-79
2022/10/13 03:58:55;;;;;;;18.80;12.60;;;14.50;59.10;;;;;;4980159;28;20180;-80
2022/10/13 04:01:23;;;;;;;18.80;12.33;;;14.50;58.20;;;;;;4979222;28;20201;-80
2022/10/13 04:03:51;;;;;;;19.63;12.93;;;14.40;61.10;;;;;;4979056;28;20229;-79
2022/10/13 04:06:16;;;;;;;20.73;12.37;;;14.40;62.30;;;;;;4980756;28;20651;-82
2022/10/13 04:08:42;;;;;;;16.90;12.40;;;14.20;66.30;;;;;;4981510;28;20181;-80
2022/10/13 04:11:11;;;;;;;21.33;12.40;;;14.10;69.50;;;;;;4979046;28;20661;-81
2022/10/13 04:13:38;;;;;;;21.50;11.73;;;14.10;71.80;;;;;;4979856;28;20219;-77
2022/10/13 04:16:12;;;;;;;17.47;11.63;;;14.10;73.90;;;;;;4981873;28;20628;-79
2022/10/13 04:18:37;;;;;;;16.57;12.03;;;14.20;75.30;;;;;;4983072;28;20176;-80
2022/10/13 04:21:09;;;;;;;17.73;12.43;;;14.20;72.70;;;;;;4984674;28;20205;-83
2022/10/13 04:23:36;;;;;;;18.50;12.50;;;14.20;73.20;;;;;;4983482;28;20218;-85
2022/10/13 04:26:03;;;;;;;15.83;12.03;;;14.20;73.40;;;;;;4983006;28;20639;-85
2022/10/13 04:28:32;;;;;;;17.60;12.67;;;14.20;72.70;;;;;;4984572;28;20188;-86
2022/10/13 04:30:58;;;;;;;17.40;11.93;;;14.30;72.20;;;;;;4982949;28;20183;-85
2022/10/13 04:33:23;;;;;;;16.93;11.37;;;14.20;71.50;;;;;;4983629;28;20605;-83
2022/10/13 04:35:49;;;;;;;18.80;11.37;;;14.20;72.80;;;;;;4987423;28;20632;-83
2022/10/13 04:38:16;;;;;;;17.83;12.47;;;14.20;71.90;;;;;;4986070;28;20592;-84
2022/10/13 04:40:41;;;;;;;16.27;11.60;;;14.10;73.10;;;;;;4991486;28;20164;-85
2022/10/13 04:43:07;;;;;;;17.20;11.53;;;14.10;74.50;;;;;;4989728;28;20218;-85
2022/10/13 04:45:33;;;;;;;16.37;11.83;;;14.10;75.30;;;;;;4985668;28;20163;-84
2022/10/13 04:47:59;;;;;;;20.90;11.27;;;14.10;76.10;;;;;;4989133;28;20202;-86
2022/10/13 04:50:25;;;;;;;19.93;12.03;;;14.10;76.80;;;;;;4987658;28;20541;-85
2022/10/13 04:52:51;;;;;;;20.27;12.23;;;14.00;77.40;;;;;;4979405;28;20699;-82
2022/10/13 04:55:17;;;;;;;18.20;12.63;;;14.00;78.60;;;;;;4978818;28;20674;-86
2022/10/13 04:57:43;;;;;;;16.97;11.40;;;14.10;78.50;;;;;;4977912;28;20186;-85
2022/10/13 05:00:09;;;;;;;18.33;11.40;;;14.00;78.20;;;;;;4978263;28;20272;-83
2022/10/13 05:02:35;;;;;;;17.90;11.67;;;14.10;75.40;;;;;;4977350;28;20211;-83
2022/10/13 05:05:03;;;;;;;19.63;11.33;;;14.20;75.20;;;;;;4978113;28;20238;-85
2022/10/13 05:07:30;;;;;;;18.67;11.67;;;14.10;74.90;;;;;;4977446;28;20179;-83
2022/10/13 05:09:56;;;;;;;21.70;12.17;;;14.10;73.90;;;;;;4977621;28;20646;-79
2022/10/13 05:12:23;;;;;;;18.50;10.93;;;14.10;73.60;;;;;;4975304;28;20172;-80
2022/10/13 05:14:48;;;;;;;17.33;11.17;;;14.20;73.90;;;;;;4976886;28;20191;-80
2022/10/13 05:17:14;;;;;;;21.00;11.90;;;14.20;73.40;;;;;;4975698;28;20531;-83
2022/10/13 05:19:40;;;;;;;16.20;11.13;;;14.10;74.30;;;;;;4976814;28;20174;-86
2022/10/13 05:22:06;;;;;;;19.17;12.23;;;14.20;74.40;;;;;;4977684;28;20625;-85
2022/10/13 05:24:35;;;;;;;20.70;11.57;;;14.20;73.20;;;;;;4976143;28;20172;-82
2022/10/13 05:27:06;;;;;;;18.20;11.63;;;14.20;71.80;;;;;;4976337;28;20241;-82
2022/10/13 05:29:31;;;;;;;22.30;11.83;;;14.20;73.20;;;;;;4975925;28;20314;-82
2022/10/13 05:31:57;;;;;;;16.63;12.53;;;14.30;73.00;;;;;;4977236;28;20182;-80
2022/10/13 05:34:23;;;;;;;17.07;11.90;;;14.30;69.90;;;;;;4978262;28;20173;-83
2022/10/13 05:36:48;;;;;;;16.40;11.60;;;14.20;70.20;;;;;;4984180;28;20169;-87
2022/10/13 05:39:14;;;;;;;21.60;11.77;;;14.30;69.70;;;;;;4999341;28;20187;-85
2022/10/13 05:41:40;;;;;;;17.03;12.20;;;14.50;67.10;;;;;;4999772;28;20169;-84
2022/10/13 05:44:08;;;;;;;20.03;12.37;;;14.30;67.30;;;;;;4999103;28;20172;-81
2022/10/13 05:46:34;;;;;;;20.27;11.37;;;14.20;70.20;;;;;;4999589;28;20180;-83
2022/10/13 05:49:03;;;;;;;20.70;12.20;;;14.20;71.80;;;;;;4984503;28;20245;-85
2022/10/13 05:55:22;;;;;;;21.30;11.30;;;14.10;76.40;;;;;;4987918;28;20190;-81
2022/10/13 05:57:51;;;;;;;19.53;11.40;;;14.10;78.30;;;;;;4978054;28;20182;-87
2022/10/13 06:00:18;;;;;;;21.20;13.23;;;14.10;78.10;;;;;;4978714;28;20220;-81
2022/10/13 06:02:50;;;;;;;20.83;12.00;;;14.10;77.30;;;;;;4983395;28;20777;-83
2022/10/13 06:05:19;;;;;;;17.60;11.70;;;14.10;78.30;;;;;;4999163;28;20199;-83
2022/10/13 06:07:46;;;;;;;20.13;11.90;;;14.10;78.50;;;;;;4991336;28;20159;-83
2022/10/13 06:10:14;;;;;;;17.20;12.20;;;14.10;78.20;;;;;;4997002;28;20166;-80
2022/10/13 06:12:46;;;;;;;18.27;11.77;;;14.10;78.70;;;;;;4996123;28;20160;-83
2022/10/13 06:15:12;;;;;;;17.53;11.30;;;14.10;79.40;;;;;;4990522;28;20175;-82
2022/10/13 06:17:38;;;;;;;15.70;11.80;;;14.10;79.40;;;;;;4986646;28;20184;-81
2022/10/13 06:20:07;;;;;;;17.97;11.87;;;14.10;79.50;;;;;;4976714;28;20238;-79
2022/10/13 06:22:34;;;;;;;20.43;10.70;;;14.10;80.70;;;;;;4975512;28;20577;-82
2022/10/13 06:25:01;;;;;;;22.07;11.77;;;14.10;81.00;;;;;;4988217;28;20584;-86
2022/10/13 06:27:27;;;;;;;15.17;12.00;;;14.20;79.10;;;;;;5000312;28;20275;-83
2022/10/13 06:29:59;;;;;;;20.10;11.60;;;14.30;77.60;;;;;;4994646;28;20170;-79
2022/10/13 06:32:25;;;;;;;22.97;12.53;;;14.30;75.70;;;;;;4969119;28;20175;-82
2022/10/13 06:34:51;;;;;;;24.77;13.77;;;14.30;75.30;;;;;;4974456;28;20258;-80
2022/10/13 06:37:18;;;;;;;19.60;13.80;;;14.30;74.20;;;;;;4976589;28;20236;-79
2022/10/13 06:39:43;;;;;;;17.37;10.73;;;14.30;74.60;;;;;;4961125;28;20750;-81
2022/10/13 06:42:09;;;;;;;19.97;11.87;;;14.30;72.90;;;;;;4978640;28;20234;-81
2022/10/13 06:44:35;;;;;;;19.97;11.37;;;14.30;72.70;;;;;;4997781;28;20198;-80
2022/10/13 06:47:02;;;;;;;21.87;12.60;;;14.40;71.40;;;;;;4996205;28;20174;-81
2022/10/13 06:49:42;;;;;;;18.20;11.00;;;14.40;70.80;;;;;;4999711;28;20179;-81
2022/10/13 06:52:08;;;;;;;22.07;11.90;;;14.40;69.10;;;;;;5003887;28;20170;-84
2022/10/13 06:54:34;;;;;;;16.93;12.00;;;14.40;68.90;;;;;;4983797;28;20253;-82
2022/10/13 06:56:59;;;;;;;22.27;12.60;;;14.50;67.90;;;;;;4974564;28;20179;-83
2022/10/13 06:59:26;;;;;;;20.27;12.37;;;14.60;63.90;;;;;;4985419;28;20167;-88
2022/10/13 07:01:52;;;;;;;18.97;11.43;;;14.60;62.30;;;;;;4988887;28;20203;-81
2022/10/13 07:04:21;;;;;;;16.70;10.90;;;14.60;61.90;;;;;;4989865;28;20196;-80
2022/10/13 07:06:49;;;;;;;17.53;11.17;;;14.50;60.30;;;;;;4991088;28;20658;-79
2022/10/13 07:09:22;;;;;;;15.23;10.53;;;14.50;62.70;;;;;;4995232;28;20188;-82
2022/10/13 07:11:49;;;;;;;14.60;9.97;;;14.40;63.30;;;;;;4987734;28;20180;-81
2022/10/13 07:14:18;;;;;;;17.37;10.53;;;14.30;64.20;;;;;;4971861;28;20196;-80
2022/10/13 07:16:50;;;;;;;15.93;10.57;;;14.40;64.70;;;;;;4988510;28;20180;-84
2022/10/13 07:19:21;;;;;;;13.47;9.97;;;14.30;64.70;;;;;;4988732;28;20190;-84
2022/10/13 07:21:47;;;;;;;16.40;9.67;;;14.40;64.40;;;;;;4986921;28;20168;-85
2022/10/13 07:24:22;;;;;;;14.37;9.23;;;14.60;62.20;;;;;;4985782;28;20186;-80
2022/10/13 07:26:48;;;;;;;14.77;10.27;;;14.50;66.60;;;;;;4988115;28;20192;-82
2022/10/13 07:29:17;;;;;;;15.97;10.53;;;14.40;70.20;;;;;;4989778;28;20208;-80
2022/10/13 07:31:44;;;;;;;14.57;9.77;;;14.40;73.10;;;;;;4986254;28;20246;-81
2022/10/13 07:34:10;;;;;;;12.87;9.60;;;14.50;72.90;;;;;;4975485;28;20174;-81
2022/10/13 07:36:37;;;;;;;15.10;9.73;;;14.60;71.70;;;;;;4974583;28;20617;-81
2022/10/13 07:39:04;;;;;;;13.03;9.20;;;14.60;72.50;;;;;;4986086;28;20159;-79
2022/10/13 07:41:30;;;;;;;16.20;9.47;;;14.60;72.20;;;;;;4983667;28;20197;-78
2022/10/13 07:43:56;;;;;;;14.67;9.70;;;14.80;71.60;;;;;;4994870;28;20195;-86
2022/10/13 07:46:24;;;;;;;13.37;9.30;;;14.60;71.00;;;;;;4984763;28;20182;-77
2022/10/13 07:48:52;;;;;;;16.23;10.10;;;14.60;71.80;;;;;;4982710;28;20298;-77
2022/10/13 07:51:21;;;;;;;14.07;10.03;;;14.60;71.70;;;;;;4979979;28;20203;-83
2022/10/13 07:53:50;;;;;;;14.70;10.10;;;14.60;71.80;;;;;;4998322;28;20191;-85
2022/10/13 07:56:35;;;;;;;17.67;10.60;;;14.70;70.10;;;;;;4985888;28;20207;-77
2022/10/13 07:59:20;;;;;;;17.27;9.57;;;14.70;68.30;;;;;;4988138;28;20160;-80
2022/10/13 08:01:46;;;;;;;18.00;9.30;;;14.70;67.50;;;;;;4984635;28;20202;-79
2022/10/13 08:07:27;;;;;;;16.00;9.67;;;14.70;65.80;;;;;;4985686;28;20246;-79
2022/10/13 08:10:20;;;;;;;16.30;10.27;;;14.80;64.80;;;;;;4971247;28;20184;-86
2022/10/13 08:12:46;;;;;;;14.27;9.63;;;14.80;64.30;;;;;;4966823;28;20245;-88
2022/10/13 08:15:12;;;;;;;15.30;9.33;;;15.00;62.80;;;;;;4977983;28;20207;-88
2022/10/13 08:17:38;;;;;;;13.57;9.20;;;15.00;59.90;;;;;;4995299;28;20168;-84
2022/10/13 08:20:05;;;;;;;14.73;9.30;;;15.10;56.50;;;;;;4992414;28;20167;-79
2022/10/13 08:22:33;;;;;;;14.57;9.57;;;15.10;55.50;;;;;;4982147;28;20597;-80
2022/10/13 08:25:02;;;;;;;13.03;8.83;;;15.10;55.20;;;;;;4997232;28;20155;-87
2022/10/13 08:27:28;;;;;;;15.77;10.13;;;15.10;54.30;;;;;;5002712;28;20163;-88
2022/10/13 08:29:54;;;;;;;12.60;8.60;;;15.20;54.20;;;;;;5000578;28;20182;-83
2022/10/13 08:32:23;;;;;;;16.67;8.60;;;15.30;52.90;;;;;;4997567;28;20620;-80
2022/10/13 08:34:50;;;;;;;17.27;7.97;;;15.30;51.60;;;;;;4990020;28;20180;-87
2022/10/13 08:37:18;;;;;;;15.33;8.17;;;15.20;50.00;;;;;;4976245;28;20198;-81
2022/10/13 08:39:44;;;;;;;14.50;8.27;;;15.30;49.80;;;;;;4977881;28;20183;-87
2022/10/13 08:42:21;;;;;;;13.33;8.27;;;15.30;48.50;;;;;;4979410;28;20204;-85
2022/10/13 08:45:03;;;;;;;12.40;7.77;;;15.20;48.30;;;;;;4978079;28;20175;-80
2022/10/13 08:47:41;;;;;;;16.23;7.37;;;15.30;47.70;;;;;;4977294;28;20234;-81
2022/10/13 08:50:13;;;;;;;16.50;8.03;;;15.30;46.90;;;;;;4985410;28;20187;-80
2022/10/13 08:52:46;;;;;;;13.07;7.57;;;15.20;46.80;;;;;;4984488;28;20179;-79
2022/10/13 08:55:37;;;;;;;14.10;7.87;;;15.20;48.90;;;;;;4994390;28;20251;-86
2022/10/13 08:58:17;;;;;;;17.17;8.40;;;15.20;47.40;;;;;;4986945;28;20160;-86
2022/10/13 09:00:43;;;;;;;14.80;8.07;;;15.20;48.60;;;;;;4983322;28;20166;-86
2022/10/13 09:03:28;;;;;;;13.10;8.50;;;15.10;49.30;;;;;;4978717;28;20214;-87
2022/10/13 09:06:18;;;;;;;13.07;7.77;;;15.10;50.20;;;;;;4979520;28;20171;-84
2022/10/13 09:08:51;;;;;;;11.23;7.90;;;15.10;50.80;;;;;;4980000;28;20172;-87
2022/10/13 09:11:18;;;;;;;14.63;7.50;;;15.20;50.80;;;;;;4977668;28;20214;-85
2022/10/13 09:13:45;;;;;;;10.87;7.37;;;15.30;49.10;;;;;;4985159;28;20198;-83
2022/10/13 09:16:10;;;;;;;13.63;8.23;;;15.30;48.40;;;;;;4994999;28;20183;-79
2022/10/13 09:18:37;;;;;;;16.00;7.87;;;15.40;48.20;;;;;;4993598;28;20179;-80
2022/10/13 09:21:24;;;;;;;13.60;7.67;;;15.40;46.40;;;;;;4999356;28;20198;-80
2022/10/13 09:23:53;;;;;;;12.10;7.90;;;15.40;48.00;;;;;;4994998;28;20237;-81
2022/10/13 09:26:24;;;;;;;11.10;7.63;;;15.40;47.80;;;;;;5006645;28;20179;-80
2022/10/13 09:28:51;;;;;;;11.50;8.40;;;15.40;48.10;;;;;;5000019;28;20169;-86
2022/10/13 09:31:29;;;;;;;11.97;8.00;;;15.40;49.20;;;;;;4996498;28;20235;-78
2022/10/13 09:34:01;;;;;;;13.10;7.50;;;15.40;49.10;;;;;;4997052;28;20162;-80
2022/10/13 09:36:27;;;;;;;11.90;8.03;;;15.40;50.30;;;;;;5001051;28;20727;-87
2022/10/13 09:39:12;;;;;;;16.90;8.83;;;15.40;51.70;;;;;;4997873;28;20167;-86
2022/10/13 09:41:41;;;;;;;13.30;8.50;;;15.50;53.00;;;;;;4997627;28;20175;-83
2022/10/13 09:44:17;;;;;;;13.10;9.00;;;15.60;53.50;;;;;;4978303;28;20262;-82
2022/10/13 09:46:50;;;;;;;13.70;8.57;;;15.70;54.40;;;;;;4978236;28;20171;-88
2022/10/13 09:49:24;;;;;;;15.30;8.77;;;15.80;56.10;;;;;;4977217;28;20240;-83
2022/10/13 09:51:59;;;;;;;16.10;8.53;;;15.80;56.60;;;;;;4977380;28;20168;-81
2022/10/13 09:54:35;;;;;;;15.23;8.30;;;15.70;59.50;;;;;;4978277;28;20561;-81
2022/10/13 09:57:40;;;;;;;12.43;8.07;;;15.70;60.50;;;;;;4980811;28;20250;-82
2022/10/13 10:00:25;;;;;;;15.47;8.47;;;15.80;60.50;;;;;;4978299;28;20183;-80
2022/10/13 10:03:14;;;;;;;12.70;10.03;;;15.90;60.60;;;;;;4978192;28;20219;-81
2022/10/13 10:05:43;;;;;;;35.90;31.00;;;15.90;58.60;;;;;;4976344;28;20219;-83
2022/10/13 10:08:36;;;;;;;21.70;18.03;;;15.90;59.50;;;;;;4976568;28;20207;-81
2022/10/13 10:11:08;;;;;;;19.17;14.03;;;16.00;62.90;;;;;;4976955;28;20183;-83
2022/10/13 10:13:34;;;;;;;16.83;9.97;;;16.10;61.40;;;;;;4977667;28;20181;-80
2022/10/13 10:16:40;;;;;;;11.63;9.17;;;16.20;57.80;;;;;;4975624;28;20180;-81
2022/10/13 10:19:17;;;;;;;15.43;8.87;;;16.10;59.50;;;;;;4974870;28;20193;-81
2022/10/13 10:21:48;;;;;;;13.77;9.70;;;16.00;60.30;;;;;;4976547;28;20183;-81
2022/10/13 10:24:39;;;;;;;18.50;10.17;;;16.10;57.70;;;;;;4977397;28;20168;-81
2022/10/13 10:27:27;;;;;;;13.87;8.87;;;16.00;61.60;;;;;;4988809;28;20222;-89
2022/10/13 10:30:14;;;;;;;19.40;9.60;;;16.00;67.40;;;;;;4990066;28;20186;-86
2022/10/13 10:33:16;;;;;;;17.70;10.60;;;15.80;70.30;;;;;;4998877;28;20150;-85
2022/10/13 10:36:15;;;;;;;16.13;10.07;;;15.80;72.10;;;;;;4998498;28;20247;-87
2022/10/13 10:39:00;;;;;;;12.63;9.57;;;15.70;75.90;;;;;;4997805;28;20167;-83
2022/10/13 10:41:35;;;;;;;14.27;10.40;;;15.60;83.80;;;;;;4990158;28;20631;-82
2022/10/13 10:44:16;;;;;;;15.27;10.20;;;15.50;90.90;;;;;;4990191;28;20222;-80
2022/10/13 10:46:47;;;;;;;14.07;10.83;;;15.40;96.10;;;;;;4981197;28;20167;-87
2022/10/13 10:49:32;;;;;;;16.17;10.83;;;15.30;99.90;;;;;;4982075;28;20199;-88
2022/10/13 10:52:38;;;;;;;16.37;10.73;;;15.20;99.90;;;;;;4997250;28;20160;-85
2022/10/13 10:55:19;;;;;;;16.13;11.77;;;15.00;99.90;;;;;;5002528;28;20233;-86
2022/10/13 10:58:18;;;;;;;16.83;11.80;;;14.90;99.90;;;;;;5011762;28;20161;-85
2022/10/13 11:01:15;;;;;;;20.13;12.40;;;14.90;99.90;;;;;;5005656;28;20278;-88
2022/10/13 11:04:37;;;;;;;16.17;12.13;;;14.90;99.90;;;;;;5009296;28;20198;-79
2022/10/13 11:07:08;;;;;;;14.80;12.43;;;14.90;99.90;;;;;;5005224;28;20197;-83
2022/10/13 11:10:03;;;;;;;17.70;12.37;;;14.90;99.90;;;;;;5004722;28;20217;-81
2022/10/13 11:12:54;;;;;;;19.20;12.70;;;14.90;99.90;;;;;;5002648;28;20266;-80
2022/10/13 11:15:44;;;;;;;16.03;12.90;;;14.90;99.90;;;;;;5002653;28;20170;-83
2022/10/13 11:18:48;;;;;;;21.10;12.73;;;14.90;99.90;;;;;;5001824;28;20190;-80
2022/10/13 11:21:14;;;;;;;16.57;12.93;;;14.90;99.90;;;;;;5002925;28;20161;-79
2022/10/13 11:23:48;;;;;;;16.40;12.13;;;14.90;99.90;;;;;;5000288;28;20301;-82
2022/10/13 11:26:41;;;;;;;16.43;13.53;;;14.90;99.90;;;;;;5002792;28;20187;-80
2022/10/13 11:29:36;;;;;;;17.30;13.77;;;15.00;99.90;;;;;;5001798;28;20274;-81
2022/10/13 11:32:56;;;;;;;16.47;13.30;;;15.10;99.90;;;;;;5007264;28;20234;-82
2022/10/13 11:35:26;;;;;;;15.40;12.30;;;15.20;99.90;;;;;;4984936;28;20190;-80
2022/10/13 11:38:01;;;;;;;15.63;12.60;;;15.20;99.90;;;;;;5001902;28;20162;-85
2022/10/13 11:41:07;;;;;;;18.53;13.13;;;15.20;99.90;;;;;;5004697;28;20284;-81
2022/10/13 11:43:48;;;;;;;18.77;11.90;;;15.40;99.90;;;;;;5003057;28;20193;-80
2022/10/13 11:46:56;;;;;;;17.87;12.43;;;15.40;99.90;;;;;;5000085;28;20167;-80
2022/10/13 11:50:13;;;;;;;17.10;12.63;;;15.50;99.90;;;;;;5001856;28;20244;-79
2022/10/13 11:53:09;;;;;;;20.17;12.57;;;15.50;99.90;;;;;;5007773;28;20167;-79
2022/10/13 11:55:53;;;;;;;18.67;12.27;;;15.40;99.90;;;;;;5011359;28;20178;-81
2022/10/13 11:58:28;;;;;;;15.07;11.83;;;15.60;99.90;;;;;;5009739;28;20171;-81
2022/10/13 12:01:05;;;;;;;17.90;11.70;;;15.30;99.90;;;;;;5009412;28;20179;-83
2022/10/13 12:03:37;;;;;;;20.83;12.57;;;15.40;99.90;;;;;;4999540;28;20218;-88
2022/10/13 12:06:06;;;;;;;19.30;12.70;;;15.40;99.90;;;;;;5009856;28;20186;-85
2022/10/13 12:08:34;;;;;;;20.63;12.93;;;15.40;99.90;;;;;;5013207;28;20190;-86
2022/10/13 12:11:03;;;;;;;16.30;12.13;;;15.30;99.90;;;;;;5019960;28;20159;-84
2022/10/13 12:13:31;;;;;;;17.00;13.00;;;15.40;99.90;;;;;;5020808;28;20155;-85
2022/10/13 12:16:05;;;;;;;19.03;12.17;;;15.40;99.90;;;;;;5020483;28;20170;-87
2022/10/13 12:18:37;;;;;;;18.03;13.57;;;15.40;99.90;;;;;;5020085;28;20201;-88
2022/10/13 12:21:16;;;;;;;17.13;13.37;;;15.50;99.90;;;;;;5013292;28;20186;-81
2022/10/13 12:23:45;;;;;;;21.63;13.10;;;15.50;99.90;;;;;;5010201;28;20220;-85
2022/10/13 12:26:17;;;;;;;22.43;13.60;;;15.60;99.90;;;;;;5005894;28;20262;-81
2022/10/13 12:28:45;;;;;;;15.83;12.67;;;15.60;99.90;;;;;;5007246;28;20223;-82
2022/10/13 12:32:08;;;;;;;17.90;12.83;;;15.50;99.90;;;;;;5000629;28;20180;-87
2022/10/13 12:34:50;;;;;;;16.30;12.70;;;15.60;99.90;;;;;;4988107;28;20179;-82
2022/10/13 12:37:49;;;;;;;20.47;13.20;;;15.80;99.90;;;;;;4986834;28;20171;-78
2022/10/13 12:40:29;;;;;;;21.40;14.33;;;15.60;99.90;;;;;;4992422;28;20172;-81
2022/10/13 12:42:58;;;;;;;23.47;13.67;;;15.60;99.90;;;;;;4991457;28;20273;-81
2022/10/13 12:45:30;;;;;;;20.77;13.83;;;15.80;99.90;;;;;;4986608;28;20315;-81
2022/10/13 12:47:55;;;;;;;16.27;13.00;;;15.60;99.90;;;;;;4981869;28;20187;-81
2022/10/13 12:50:26;;;;;;;19.53;13.37;;;15.60;99.90;;;;;;4979214;28;20738;-87
2022/10/13 12:53:12;;;;;;;20.37;14.63;;;15.70;99.90;;;;;;4979170;28;20168;-81
2022/10/13 12:55:49;;;;;;;21.57;15.13;;;15.80;99.90;;;;;;4978293;28;20257;-82
2022/10/13 12:58:30;;;;;;;18.33;15.63;;;15.70;99.90;;;;;;4977069;28;20176;-86
2022/10/13 13:01:06;;;;;;;18.33;14.67;;;15.70;99.90;;;;;;4966717;28;20190;-81
2022/10/13 13:03:32;;;;;;;17.80;14.93;;;15.50;99.90;;;;;;4972275;28;20679;-86
2022/10/13 13:06:22;;;;;;;19.03;15.40;;;15.40;99.90;;;;;;4967247;28;20180;-86
2022/10/13 13:09:22;;;;;;;16.33;14.60;;;15.40;99.90;;;;;;4976435;28;20194;-82